Sortavala, Russia
Current Conditions -  °F | °C
As of 3:20 AM on Tuesday 25 Nov 2014 (Local Time) from EFSA Reporting Station
Overcast Overcast  
Wind Chill: 23°   Ceiling: 700
Heat Index: 30°   Visibility: 6mi
Dew Point: 28°   Wind: 7mph
Humidity: 93%   Direction: 140°SE
Pressure: 30.24"   Gusts: NA
Location:  61.7°N, 30.68°E
Report Text: EFSA 250020Z AUTO 14006KT 110V180 9999 OVC007 M01/M02 Q1024
Loading
Personal Weather Stations






























Interactive Weather Map New forecast layout! Learn more

10-Day Weather Forecast

Advertisements
Track Severe Weather on mobile